Thunder radar more information blitzortung!


Radar de pluja more information rain snow radar


Visita la nostra xarxa de llocs de meteo:

Template documentation
and downloads

And another site



No particular awareness of the weather is required.    There are no Weather-warnings

Pagina Historial Weather Underground text

Diari Resum May 3, 2016 Unitats:  Mètric    Imperial   Tant
« Previous Dia
SegĂźent Dia »
Diari Setmana Mensual Anual Personalitzada
  Maxima: Minima: Media:
Temperatura: 24.0 °C 8.7 °C 16.6 °C
Punt de rosada: 10.0 °C 1.8 °C 7.5 °C
Humitat: 81 % 35 % 56 %
Wind Speed: 27.8 km/h 0.0 km/h 8.2 km/h
RĂ fegues de vent: 27.8 km/h - -
Vent:- - ESE
Pression baro: 1022.9 hPa 1020.9 hPa -
Precipitacions: 0.0 mm    
Historical Graphs
 
 
Dades de taula per May 3, 2016
Temps Temperatura Punt de rosada Pression baro Vent Wind Speed RĂ fegues de vent Humitat Rainfall Rate (Hourly)
00:00 9.8 °C 2.8 °C 1021.9 hPa NE 1.6 km/h 3.2 km/h 62 % 0.0 mm
00:03 14.3 °C 4.3 °C 1021.9 hPa East 3.7 km/h 3.7 km/h 51 % 0.0 mm
00:08 14.3 °C 4.6 °C 1021.9 hPa ENE 4.2 km/h 4.2 km/h 52 % 0.0 mm
00:10 9.5 °C 2.6 °C 1021.9 hPa Calm   1.6 km/h 62 % 0.0 mm
00:20 9.0 °C 2.1 °C 1021.9 hPa NNE 3.2 km/h 4.8 km/h 62 % 0.0 mm
00:30 8.7 °C 2.1 °C 1021.9 hPa WSW 1.6 km/h 3.2 km/h 63 % 0.0 mm
00:40 8.7 °C 2.1 °C 1021.9 hPa SW 3.2 km/h 3.2 km/h 63 % 0.0 mm
00:50 8.7 °C 2.1 °C 1021.9 hPa WSW 1.6 km/h 3.2 km/h 63 % 0.0 mm
01:00 8.7 °C 2.3 °C 1021.9 hPa WSW 3.2 km/h 4.8 km/h 64 % 0.0 mm
01:10 8.8 °C 2.6 °C 1021.9 hPa Calm   4.8 km/h 65 % 0.0 mm
01:20 8.9 °C 2.4 °C 1021.9 hPa WSW 3.2 km/h 4.8 km/h 64 % 0.0 mm
01:30 9.1 °C 2.7 °C 1021.9 hPa WSW 1.6 km/h 4.8 km/h 64 % 0.0 mm
01:40 9.0 °C 2.6 °C 1021.9 hPa Calm   1.6 km/h 64 % 0.0 mm
01:50 9.0 °C 2.3 °C 1021.9 hPa SW 1.6 km/h 3.2 km/h 63 % 0.0 mm
02:00 9.0 °C 2.3 °C 1022.9 hPa NNE 1.6 km/h 1.6 km/h 63 % 0.0 mm
02:10 8.7 °C 1.8 °C 1022.9 hPa NNW 3.2 km/h 3.2 km/h 62 % 0.0 mm
02:20 9.0 °C 2.1 °C 1021.9 hPa West 1.6 km/h 3.2 km/h 62 % 0.0 mm
02:30 9.5 °C 2.3 °C 1021.9 hPa NNW 3.2 km/h 3.2 km/h 61 % 0.0 mm
02:40 10.4 °C 2.9 °C 1021.9 hPa NE 1.6 km/h 4.8 km/h 60 % 0.0 mm
02:50 10.6 °C 2.9 °C 1021.9 hPa NE 4.8 km/h 6.4 km/h 59 % 0.0 mm
03:00 11.1 °C 3.2 °C 1022.9 hPa NE 4.8 km/h 4.8 km/h 58 % 0.0 mm
03:10 11.6 °C 3.4 °C 1022.9 hPa NE 1.6 km/h 4.8 km/h 57 % 0.0 mm
03:20 12.0 °C 3.5 °C 1022.9 hPa NE 4.8 km/h 6.4 km/h 56 % 0.0 mm
03:30 12.2 °C 3.7 °C 1022.9 hPa NE 3.2 km/h 9.7 km/h 56 % 0.0 mm
03:40 12.6 °C 3.8 °C 1022.9 hPa NNE 3.2 km/h 4.8 km/h 55 % 0.0 mm
03:50 12.9 °C 4.1 °C 1022.9 hPa NE 3.2 km/h 6.4 km/h 55 % 0.0 mm
04:00 13.5 °C 4.6 °C 1022.9 hPa NE 3.2 km/h 4.8 km/h 55 % 0.0 mm
04:10 13.7 °C 4.6 °C 1022.9 hPa NE 3.2 km/h 12.9 km/h 54 % 0.0 mm
04:20 14.0 °C 4.6 °C 1021.9 hPa NE 4.8 km/h 6.4 km/h 53 % 0.0 mm
04:30 14.3 °C 4.8 °C 1022.9 hPa NE 3.2 km/h 6.4 km/h 53 % 0.0 mm
04:40 14.6 °C 5.1 °C 1022.9 hPa NE 4.8 km/h 6.4 km/h 53 % 0.0 mm
04:50 15.0 °C 5.2 °C 1022.9 hPa NE 3.2 km/h 6.4 km/h 52 % 0.0 mm
05:00 15.2 °C 5.4 °C 1022.9 hPa ENE 3.2 km/h 4.8 km/h 52 % 0.0 mm
05:10 15.8 °C 5.9 °C 1022.9 hPa NE 3.2 km/h 6.4 km/h 52 % 0.0 mm
05:20 16.1 °C 6.2 °C 1022.9 hPa NNE 3.2 km/h 4.8 km/h 52 % 0.0 mm
05:30 16.7 °C 6.8 °C 1022.9 hPa NE 4.8 km/h 4.8 km/h 52 % 0.0 mm
05:40 16.9 °C 7.0 °C 1022.9 hPa NE 3.2 km/h 4.8 km/h 52 % 0.0 mm
10:43 17.5 °C 6.9 °C 1022.9 hPa NW 3.7 km/h 3.7 km/h 50 % 0.0 mm
10:48 17.6 °C 7.1 °C 1022.9 hPa ENE 1.9 km/h 1.9 km/h 50 % 0.0 mm
10:53 18.0 °C 7.4 °C 1022.9 hPa ENE 5.6 km/h 5.6 km/h 50 % 0.0 mm
10:58 18.0 °C 7.4 °C 1022.9 hPa South 3.7 km/h 3.7 km/h 50 % 0.0 mm
11:03 18.4 °C 7.5 °C 1022.9 hPa NE 5.6 km/h 5.6 km/h 49 % 0.0 mm
11:08 18.5 °C 7.6 °C 1022.9 hPa ENE 3.9 km/h 3.9 km/h 49 % 0.0 mm
11:13 18.5 °C 7.6 °C 1022.9 hPa NE 4.7 km/h 4.7 km/h 49 % 0.0 mm
11:18 18.6 °C 7.7 °C 1022.9 hPa ENE 7.4 km/h 7.4 km/h 49 % 0.0 mm
11:23 18.7 °C 7.4 °C 1022.9 hPa NNW 5.6 km/h 5.6 km/h 48 % 0.0 mm
11:28 18.9 °C 7.7 °C 1022.9 hPa SW 5.6 km/h 5.6 km/h 48 % 0.0 mm
11:33 19.1 °C 7.2 °C 1022.9 hPa ENE 9.3 km/h 9.3 km/h 46 % 0.0 mm
11:38 19.4 °C 7.8 °C 1022.9 hPa NE 3.9 km/h 3.9 km/h 47 % 0.0 mm
11:43 19.4 °C 7.5 °C 1022.9 hPa East 7.4 km/h 7.4 km/h 46 % 0.0 mm
11:48 19.3 °C 7.4 °C 1022.9 hPa West 5.6 km/h 5.6 km/h 46 % 0.0 mm
11:53 19.9 °C 7.9 °C 1022.9 hPa NW 5.6 km/h 5.6 km/h 46 % 0.0 mm
11:58 20.3 °C 7.9 °C 1022.9 hPa ENE 3.7 km/h 3.7 km/h 45 % 0.0 mm
12:08 21.0 °C 7.9 °C 1022.9 hPa South 7.4 km/h 7.4 km/h 43 % 0.0 mm
12:13 21.5 °C 8.4 °C 1022.9 hPa NNE 4.2 km/h 4.2 km/h 43 % 0.0 mm
12:18 20.8 °C 7.4 °C 1022.9 hPa WNW 7.4 km/h 7.4 km/h 42 % 0.0 mm
12:23 21.0 °C 7.2 °C 1022.9 hPa ENE 3.7 km/h 3.7 km/h 41 % 0.0 mm
12:28 21.7 °C 7.9 °C 1021.9 hPa South 3.7 km/h 3.7 km/h 41 % 0.0 mm
12:33 22.3 °C 8.4 °C 1021.9 hPa SW 7.4 km/h 7.4 km/h 41 % 0.0 mm
12:38 22.6 °C 8.3 °C 1021.9 hPa SW 5.6 km/h 5.6 km/h 40 % 0.0 mm
12:43 22.5 °C 7.8 °C 1021.9 hPa ESE 9.3 km/h 9.3 km/h 39 % 0.0 mm
12:48 22.8 °C 8.1 °C 1021.9 hPa ENE 4.7 km/h 4.7 km/h 39 % 0.0 mm
12:53 23.0 °C 7.9 °C 1021.9 hPa WNW 13.0 km/h 13.0 km/h 38 % 0.0 mm
12:58 23.4 °C 7.9 °C 1021.9 hPa SW 5.6 km/h 5.6 km/h 37 % 0.0 mm
13:03 23.2 °C 7.3 °C 1021.9 hPa SW 5.6 km/h 5.6 km/h 36 % 0.0 mm
13:08 24.0 °C 7.6 °C 1021.9 hPa South 5.8 km/h 5.8 km/h 35 % 0.0 mm
13:13 22.8 °C 7.7 °C 1020.9 hPa ENE 7.4 km/h 7.4 km/h 38 % 0.0 mm
13:23 22.1 °C 7.5 °C 1020.9 hPa ENE 16.7 km/h 16.7 km/h 39 % 0.0 mm
13:28 22.1 °C 7.9 °C 1021.9 hPa ESE 14.8 km/h 14.8 km/h 40 % 0.0 mm
13:30 19.5 °C 8.2 °C 1022.9 hPa East 11.3 km/h 12.9 km/h 48 % 0.0 mm
13:33 21.5 °C 7.7 °C 1021.9 hPa SSE 14.8 km/h 14.8 km/h 41 % 0.0 mm
13:38 21.6 °C 8.1 °C 1021.9 hPa ESE 13.0 km/h 13.0 km/h 42 % 0.0 mm
13:43 21.4 °C 7.9 °C 1021.9 hPa ENE 13.0 km/h 13.0 km/h 42 % 0.0 mm
13:48 21.5 °C 8.4 °C 1021.9 hPa ESE 13.0 km/h 13.0 km/h 43 % 0.0 mm
13:53 21.4 °C 8.3 °C 1021.9 hPa ESE 15.1 km/h 15.1 km/h 43 % 0.0 mm
13:58 21.5 °C 8.7 °C 1021.9 hPa ESE 18.5 km/h 18.5 km/h 44 % 0.0 mm
14:03 21.4 °C 8.6 °C 1021.9 hPa ENE 15.1 km/h 15.1 km/h 44 % 0.0 mm
14:08 21.2 °C 8.8 °C 1021.9 hPa ENE 15.6 km/h 15.6 km/h 45 % 0.0 mm
14:13 21.1 °C 8.7 °C 1021.9 hPa East 13.7 km/h 13.7 km/h 45 % 0.0 mm
14:23 21.0 °C 9.3 °C 1021.9 hPa ESE 13.0 km/h 13.0 km/h 47 % 0.0 mm
14:28 20.7 °C 9.3 °C 1021.9 hPa East 18.5 km/h 18.5 km/h 48 % 0.0 mm
14:33 20.7 °C 9.3 °C 1021.9 hPa ESE 16.9 km/h 16.9 km/h 48 % 0.0 mm
14:38 20.8 °C 9.7 °C 1021.9 hPa ESE 14.8 km/h 14.8 km/h 49 % 0.0 mm
14:43 20.8 °C 9.7 °C 1021.9 hPa SSE 18.3 km/h 18.3 km/h 49 % 0.0 mm
14:48 21.1 °C 9.7 °C 1021.9 hPa ESE 16.7 km/h 16.7 km/h 48 % 0.0 mm
14:53 21.1 °C 9.7 °C 1021.9 hPa East 27.8 km/h 27.8 km/h 48 % 0.0 mm
15:03 21.0 °C 9.3 °C 1021.9 hPa East 14.8 km/h 14.8 km/h 47 % 0.0 mm
15:08 21.1 °C 9.3 °C 1021.9 hPa ESE 21.2 km/h 21.2 km/h 47 % 0.0 mm
15:13 21.0 °C 9.6 °C 1021.9 hPa ESE 13.0 km/h 13.0 km/h 48 % 0.0 mm
15:18 21.1 °C 9.7 °C 1021.9 hPa SE 13.0 km/h 13.0 km/h 48 % 0.0 mm
15:23 21.1 °C 9.7 °C 1021.9 hPa ESE 16.7 km/h 16.7 km/h 48 % 0.0 mm
15:28 21.1 °C 9.7 °C 1021.9 hPa ENE 18.5 km/h 18.5 km/h 48 % 0.0 mm
15:33 20.9 °C 9.5 °C 1021.9 hPa ESE 16.7 km/h 16.7 km/h 48 % 0.0 mm
15:38 21.0 °C 9.6 °C 1021.9 hPa East 13.0 km/h 13.0 km/h 48 % 0.0 mm
15:43 20.9 °C 9.8 °C 1021.9 hPa ESE 16.7 km/h 16.7 km/h 49 % 0.0 mm
15:48 21.0 °C 9.6 °C 1021.9 hPa ESE 21.7 km/h 21.7 km/h 48 % 0.0 mm
15:53 20.6 °C 9.5 °C 1021.9 hPa East 20.6 km/h 20.6 km/h 49 % 0.0 mm
15:58 20.6 °C 9.5 °C 1021.9 hPa ENE 20.4 km/h 20.4 km/h 49 % 0.0 mm
16:03 20.6 °C 9.8 °C 1021.9 hPa East 14.8 km/h 14.8 km/h 50 % 0.0 mm
16:08 20.8 °C 10.0 °C 1021.9 hPa ENE 18.5 km/h 18.5 km/h 50 % 0.0 mm
16:13 20.6 °C 9.8 °C 1020.9 hPa ESE 14.8 km/h 14.8 km/h 50 % 0.0 mm
16:18 20.6 °C 9.8 °C 1020.9 hPa ENE 16.7 km/h 16.7 km/h 50 % 0.0 mm
16:23 20.5 °C 9.7 °C 1020.9 hPa East 18.5 km/h 18.5 km/h 50 % 0.0 mm
16:28 20.6 °C 9.8 °C 1021.9 hPa East 11.1 km/h 11.1 km/h 50 % 0.0 mm
16:33 20.3 °C 9.6 °C 1021.9 hPa East 22.2 km/h 22.2 km/h 50 % 0.0 mm
16:38 20.4 °C 9.6 °C 1021.9 hPa ESE 19.8 km/h 19.8 km/h 50 % 0.0 mm
16:43 20.2 °C 9.4 °C 1020.9 hPa NNE 18.5 km/h 18.5 km/h 50 % 0.0 mm
16:48 20.3 °C 9.6 °C 1020.9 hPa ENE 14.8 km/h 14.8 km/h 50 % 0.0 mm
16:53 20.2 °C 9.4 °C 1020.9 hPa NE 13.0 km/h 13.0 km/h 50 % 0.0 mm
16:58 20.3 °C 9.6 °C 1020.9 hPa ENE 16.7 km/h 16.7 km/h 50 % 0.0 mm
17:03 20.1 °C 9.3 °C 1020.9 hPa East 14.8 km/h 14.8 km/h 50 % 0.0 mm
17:08 20.1 °C 9.3 °C 1020.9 hPa ESE 16.7 km/h 16.7 km/h 50 % 0.0 mm
17:13 20.0 °C 8.9 °C 1021.9 hPa ESE 13.0 km/h 13.0 km/h 49 % 0.0 mm
17:18 20.2 °C 9.2 °C 1021.9 hPa ENE 13.0 km/h 13.0 km/h 49 % 0.0 mm
17:23 20.3 °C 9.2 °C 1021.9 hPa ESE 13.0 km/h 13.0 km/h 49 % 0.0 mm
17:28 20.4 °C 9.3 °C 1020.9 hPa ENE 13.0 km/h 13.0 km/h 49 % 0.0 mm
17:33 20.4 °C 9.3 °C 1020.9 hPa East 14.0 km/h 14.0 km/h 49 % 0.0 mm
17:38 20.2 °C 8.8 °C 1020.9 hPa ENE 15.6 km/h 15.6 km/h 48 % 0.0 mm
17:43 20.1 °C 8.7 °C 1020.9 hPa ENE 16.7 km/h 16.7 km/h 48 % 0.0 mm
17:48 20.2 °C 8.8 °C 1020.9 hPa East 14.8 km/h 14.8 km/h 48 % 0.0 mm
17:53 20.0 °C 8.7 °C 1020.9 hPa ESE 13.0 km/h 13.0 km/h 48 % 0.0 mm
17:58 19.9 °C 8.6 °C 1020.9 hPa ENE 12.2 km/h 12.2 km/h 48 % 0.0 mm
18:03 19.8 °C 8.4 °C 1020.9 hPa ENE 13.0 km/h 13.0 km/h 48 % 0.0 mm
18:08 19.7 °C 8.4 °C 1020.9 hPa East 16.7 km/h 16.7 km/h 48 % 0.0 mm
18:14 19.8 °C 8.4 °C 1020.9 hPa East 13.0 km/h 13.0 km/h 48 % 0.0 mm
18:19 19.8 °C 8.2 °C 1020.9 hPa ENE 13.0 km/h 13.0 km/h 47 % 0.0 mm
18:24 19.7 °C 8.4 °C 1020.9 hPa ENE 16.7 km/h 16.7 km/h 48 % 0.0 mm
18:32 19.5 °C 8.2 °C 1020.9 hPa ENE 5.6 km/h 8.7 km/h 48 % 0.0 mm
18:37 19.5 °C 8.2 °C 1020.9 hPa East 13.7 km/h 13.7 km/h 48 % 0.0 mm
18:42 19.3 °C 8.0 °C 1020.9 hPa South 13.0 km/h 13.0 km/h 48 % 0.0 mm
18:47 19.3 °C 8.0 °C 1020.9 hPa East 16.7 km/h 16.7 km/h 48 % 0.0 mm
18:57 19.1 °C 7.8 °C 1020.9 hPa ESE 14.8 km/h 14.8 km/h 48 % 0.0 mm
19:02 19.0 °C 7.7 °C 1020.9 hPa ESE 11.9 km/h 11.9 km/h 48 % 0.0 mm
19:07 18.9 °C 7.9 °C 1020.9 hPa East 9.3 km/h 9.3 km/h 49 % 0.0 mm
19:17 18.7 °C 7.8 °C 1020.9 hPa South 7.4 km/h 8.7 km/h 49 % 0.0 mm
19:20 13.4 °C 8.8 °C 1022.9 hPa NE 1.6 km/h 3.2 km/h 74 % 0.0 mm
19:22 18.6 °C 7.7 °C 1020.9 hPa NE 9.3 km/h 9.3 km/h 49 % 0.0 mm
19:27 18.4 °C 7.5 °C 1021.9 hPa ESE 13.7 km/h 13.7 km/h 49 % 0.0 mm
19:30 13.3 °C 8.8 °C 1022.9 hPa NE 3.2 km/h 4.8 km/h 74 % 0.0 mm
19:32 18.2 °C 7.3 °C 1021.9 hPa ESE 9.7 km/h 11.1 km/h 49 % 0.0 mm
19:37 18.1 °C 7.2 °C 1021.9 hPa ENE 11.1 km/h 11.1 km/h 49 % 0.0 mm
19:40 13.2 °C 8.9 °C 1022.9 hPa NE 3.2 km/h 4.8 km/h 75 % 0.0 mm
19:42 18.0 °C 7.1 °C 1020.9 hPa ESE 13.0 km/h 13.0 km/h 49 % 0.0 mm
19:47 17.9 °C 7.3 °C 1020.9 hPa ENE 11.1 km/h 11.1 km/h 50 % 0.0 mm
19:50 13.1 °C 8.9 °C 1022.9 hPa NE 4.8 km/h 4.8 km/h 76 % 0.0 mm
19:57 17.7 °C 7.2 °C 1021.9 hPa ESE 13.0 km/h 13.0 km/h 50 % 0.0 mm
20:00 13.0 °C 8.9 °C 1022.9 hPa NE 3.2 km/h 6.4 km/h 76 % 0.0 mm
20:02 17.6 °C 7.1 °C 1021.9 hPa ESE 7.4 km/h 7.4 km/h 50 % 0.0 mm
20:10 12.9 °C 8.8 °C 1022.9 hPa NE 1.6 km/h 3.2 km/h 76 % 0.0 mm
20:12 17.3 °C 7.1 °C 1021.9 hPa ESE 13.0 km/h 13.0 km/h 51 % 0.0 mm
20:17 17.2 °C 6.9 °C 1021.9 hPa ENE 11.1 km/h 11.1 km/h 51 % 0.0 mm
20:20 12.8 °C 8.7 °C 1022.9 hPa Calm   3.2 km/h 76 % 0.0 mm
20:22 17.0 °C 7.1 °C 1021.9 hPa SE 11.1 km/h 11.1 km/h 52 % 0.0 mm
20:27 16.9 °C 7.3 °C 1021.9 hPa ESE 9.3 km/h 9.3 km/h 53 % 0.0 mm
20:30 12.6 °C 8.7 °C 1022.9 hPa Calm     77 % 0.0 mm
20:32 16.8 °C 7.4 °C 1021.9 hPa ESE 14.8 km/h 14.8 km/h 54 % 0.0 mm
20:37 16.6 °C 7.5 °C 1021.9 hPa ESE 9.3 km/h 9.3 km/h 55 % 0.0 mm
20:40 12.3 °C 8.0 °C 1022.9 hPa Calm   3.2 km/h 75 % 0.0 mm
20:42 16.5 °C 7.4 °C 1021.9 hPa ESE 13.0 km/h 13.0 km/h 55 % 0.0 mm
20:47 16.3 °C 7.5 °C 1021.9 hPa ENE 7.4 km/h 7.4 km/h 56 % 0.0 mm
20:50 12.2 °C 7.9 °C 1022.9 hPa SW 3.2 km/h 3.2 km/h 75 % 0.0 mm
20:52 16.2 °C 7.7 °C 1021.9 hPa ENE 9.3 km/h 9.3 km/h 57 % 0.0 mm
20:57 16.2 °C 7.9 °C 1021.9 hPa ENE 9.3 km/h 9.3 km/h 58 % 0.0 mm
21:00 12.0 °C 8.1 °C 1022.9 hPa SW 1.6 km/h 3.2 km/h 77 % 0.0 mm
21:02 16.1 °C 8.1 °C 1021.9 hPa ENE 7.6 km/h 7.6 km/h 59 % 0.0 mm
21:07 15.9 °C 7.9 °C 1021.9 hPa ENE 7.4 km/h 7.4 km/h 59 % 0.0 mm
21:10 12.0 °C 8.3 °C 1022.9 hPa Calm   1.6 km/h 78 % 0.0 mm
21:12 15.8 °C 8.1 °C 1021.9 hPa ENE 7.4 km/h 7.4 km/h 60 % 0.0 mm
21:17 15.7 °C 8.2 °C 1021.9 hPa East 4.2 km/h 4.2 km/h 61 % 0.0 mm
21:19 15.6 °C 8.1 °C 1021.9 hPa East 7.4 km/h 7.4 km/h 61 % 0.0 mm
21:24 15.5 °C 8.0 °C 1021.9 hPa ESE 5.8 km/h 5.8 km/h 61 % 0.0 mm
21:30 11.8 °C 8.3 °C 1022.9 hPa Calm     79 % 0.0 mm
21:39 15.2 °C 7.9 °C 1021.9 hPa ENE 7.4 km/h 7.4 km/h 62 % 0.0 mm
21:40 11.8 °C 8.3 °C 1022.9 hPa Calm     79 % 0.0 mm
21:44 15.2 °C 8.2 °C 1021.9 hPa NE 3.9 km/h 3.9 km/h 63 % 0.0 mm
21:49 15.1 °C 8.1 °C 1021.9 hPa ENE 5.8 km/h 5.8 km/h 63 % 0.0 mm
21:50 11.8 °C 8.3 °C 1022.9 hPa Calm     79 % 0.0 mm
21:54 15.0 °C 8.0 °C 1021.9 hPa NNE 4.2 km/h 4.2 km/h 63 % 0.0 mm
21:59 14.9 °C 8.2 °C 1022.9 hPa ENE 7.4 km/h 7.4 km/h 64 % 0.0 mm
22:00 11.7 °C 8.2 °C 1022.9 hPa North 1.6 km/h 3.2 km/h 79 % 0.0 mm
22:05 11.3 °C 7.6 °C 1022.9 hPa Calm   3.2 km/h 78 % 0.0 mm
22:09 14.8 °C 8.3 °C 1022.9 hPa NNE 9.3 km/h 9.3 km/h 65 % 0.0 mm
22:14 14.7 °C 8.2 °C 1022.9 hPa ENE 9.3 km/h 9.3 km/h 65 % 0.0 mm
22:15 11.1 °C 7.4 °C 1022.9 hPa WSW 1.6 km/h 4.8 km/h 78 % 0.0 mm
22:19 14.6 °C 8.3 °C 1022.9 hPa NE 9.3 km/h 9.3 km/h 66 % 0.0 mm
22:24 14.5 °C 8.2 °C 1022.9 hPa ENE 7.4 km/h 7.4 km/h 66 % 0.0 mm
22:25 11.0 °C 7.5 °C 1021.9 hPa Calm     79 % 0.0 mm
22:29 14.4 °C 8.3 °C 1022.9 hPa NNE 5.6 km/h 5.8 km/h 67 % 0.0 mm
22:34 14.3 °C 8.3 °C 1022.9 hPa ENE 7.4 km/h 7.4 km/h 67 % 0.0 mm
22:35 10.9 °C 7.6 °C 1021.9 hPa Calm     80 % 0.0 mm
22:39 14.2 °C 8.4 °C 1022.9 hPa NNE 5.6 km/h 5.6 km/h 68 % 0.0 mm
22:44 14.1 °C 8.3 °C 1022.9 hPa ENE 7.4 km/h 7.4 km/h 68 % 0.0 mm
22:45 10.8 °C 7.5 °C 1022.9 hPa Calm     80 % 0.0 mm
22:49 14.0 °C 8.2 °C 1022.9 hPa NNE 7.4 km/h 7.4 km/h 68 % 0.0 mm
22:54 14.0 °C 8.4 °C 1022.9 hPa NNE 7.4 km/h 7.4 km/h 69 % 0.0 mm
22:55 10.7 °C 7.4 °C 1022.9 hPa Calm     80 % 0.0 mm
22:59 13.9 °C 8.3 °C 1022.9 hPa ENE 5.6 km/h 5.6 km/h 69 % 0.0 mm
23:04 13.8 °C 8.4 °C 1022.9 hPa East 7.4 km/h 7.4 km/h 70 % 0.0 mm
23:09 13.8 °C 8.4 °C 1022.9 hPa ENE 6.1 km/h 6.1 km/h 70 % 0.0 mm
23:14 13.7 °C 8.3 °C 1022.9 hPa NE 5.6 km/h 5.6 km/h 70 % 0.0 mm
23:15 10.4 °C 6.9 °C 1021.9 hPa Calm   1.6 km/h 79 % 0.0 mm
23:19 13.7 °C 8.6 °C 1022.9 hPa ENE 3.9 km/h 4.2 km/h 71 % 0.0 mm
23:24 13.7 °C 8.6 °C 1022.9 hPa NNE 5.6 km/h 5.6 km/h 71 % 0.0 mm
23:25 10.2 °C 6.9 °C 1021.9 hPa Calm     80 % 0.0 mm
23:29 13.6 °C 8.7 °C 1022.9 hPa NNE 5.6 km/h 5.6 km/h 72 % 0.0 mm
23:34 13.6 °C 8.7 °C 1022.9 hPa ENE 3.7 km/h 3.7 km/h 72 % 0.0 mm
23:35 10.2 °C 7.1 °C 1021.9 hPa SW 1.6 km/h 1.6 km/h 81 % 0.0 mm
23:39 13.5 °C 8.6 °C 1022.9 hPa ENE 3.7 km/h 4.2 km/h 72 % 0.0 mm
23:44 13.5 °C 8.6 °C 1022.9 hPa NNE 3.7 km/h 3.7 km/h 72 % 0.0 mm
23:45 10.1 °C 6.8 °C 1021.9 hPa Calm     80 % 0.0 mm
23:49 13.5 °C 8.8 °C 1022.9 hPa NE 3.9 km/h 3.9 km/h 73 % 0.0 mm
23:54 13.4 °C 8.7 °C 1022.9 hPa ENE 5.6 km/h 5.6 km/h 73 % 0.0 mm
23:55 10.0 °C 6.7 °C 1021.9 hPa Calm     80 % 0.0 mm
23:59 13.4 °C 8.8 °C 1022.9 hPa NNE 4.7 km/h 4.7 km/h 74 % 0.0 mm
Meteo Sesrovires
Elogis d' Weather Underground - 3.75 mb

Guio original per  Jim McMurry - jmcmurry@mwt.net Adaptat per a la plantilla per  Wim van der Kuil - Leuven-Template.eu

Trobareu la nostra informacio del temps tambe a:

Weather Underground

AWEKAS